Time;durP1;ratioP1;P1;durP2;ratioP2;P2;SDS_P1;SDS_P2;PMS_P1;PMS_P2;Temp;Humidity;BMP_temperature;BMP_pressure;BME280_temperature;BME280_humidity;BME280_pressure;Samples;Min_cycle;Max_cycle;Signal;HPM_P1;HPM_P2
2023/12/03 00:02:21;;;;;;;9.40;3.53;;;;;;;-1.39;77.88;99957.81;5024690;28;20041;-42
2023/12/03 00:04:51;;;;;;;11.18;3.70;;;;;;;-1.37;77.54;99953.69;5024024;28;20045;-42
2023/12/03 00:07:19;;;;;;;6.38;2.70;;;;;;;-1.36;77.58;99952.88;5023806;28;20056;-45
2023/12/03 00:09:46;;;;;;;11.05;4.10;;;;;;;-1.33;77.63;99947.94;5031210;28;20467;-42
2023/12/03 00:12:13;;;;;;;12.20;4.95;;;;;;;-1.29;77.29;99938.75;5041295;28;20049;-44
2023/12/03 00:14:40;;;;;;;7.78;2.72;;;;;;;-1.31;77.38;99935.28;5039175;28;20049;-51
2023/12/03 00:17:07;;;;;;;11.65;4.45;;;;;;;-1.30;77.23;99932.81;5044137;28;20072;-40
2023/12/03 00:19:34;;;;;;;11.65;3.50;;;;;;;-1.27;77.58;99937.16;5028664;28;20073;-42
2023/12/03 00:22:00;;;;;;;13.52;4.70;;;;;;;-1.24;77.85;99938.97;5023996;28;20050;-50
2023/12/03 00:24:27;;;;;;;11.95;4.45;;;;;;;-1.21;77.41;99936.56;5019423;28;20046;-46
2023/12/03 00:26:54;;;;;;;16.33;4.38;;;;;;;-1.18;77.51;99939.25;5024315;28;20491;-42
2023/12/03 00:29:20;;;;;;;11.80;3.53;;;;;;;-1.17;77.61;99938.44;5023936;28;20042;-44
2023/12/03 00:31:47;;;;;;;9.35;3.47;;;;;;;-1.17;77.74;99934.22;5019605;28;20046;-44
2023/12/03 00:34:14;;;;;;;4.75;1.98;;;;;;;-1.11;78.26;99932.75;5021839;28;20049;-42
2023/12/03 00:36:40;;;;;;;9.65;3.05;;;;;;;-1.04;78.32;99919.50;5020961;28;20057;-47
2023/12/03 00:39:07;;;;;;;2.45;1.45;;;;;;;-1.00;78.66;99923.03;5022048;28;20046;-49
2023/12/03 00:41:34;;;;;;;5.70;2.53;;;;;;;-0.95;78.66;99913.94;5010663;28;20151;-48
2023/12/03 00:44:01;;;;;;;3.78;2.03;;;;;;;-0.89;78.75;99904.00;5010550;28;20046;-46
2023/12/03 00:46:28;;;;;;;4.38;1.75;;;;;;;-0.88;79.40;99900.63;5009766;28;20054;-45
2023/12/03 00:48:54;;;;;;;6.30;2.25;;;;;;;-0.88;79.70;99895.56;5008358;28;20141;-43
2023/12/03 00:51:21;;;;;;;3.95;2.53;;;;;;;-0.87;80.09;99894.78;5011211;28;20049;-45
2023/12/03 00:53:48;;;;;;;3.80;2.17;;;;;;;-0.81;79.86;99889.91;5030902;28;20479;-47
2023/12/03 00:56:14;;;;;;;3.53;1.65;;;;;;;-0.79;79.99;99890.88;5009569;28;20049;-44
2023/12/03 00:58:41;;;;;;;7.70;2.10;;;;;;;-0.74;80.54;99882.56;5010509;28;20046;-49
2023/12/03 01:01:08;;;;;;;4.30;2.05;;;;;;;-0.71;79.90;99872.50;5013175;28;20042;-50
2023/12/03 01:03:35;;;;;;;2.97;1.70;;;;;;;-0.71;80.40;99870.81;5024378;28;20375;-44
2023/12/03 01:06:02;;;;;;;6.65;2.20;;;;;;;-0.65;80.55;99867.66;5010183;28;20104;-43
2023/12/03 01:08:29;;;;;;;5.45;2.60;;;;;;;-0.64;80.53;99879.59;5012376;28;20112;-46
2023/12/03 01:10:55;;;;;;;8.63;3.03;;;;;;;-0.60;80.33;99886.53;5010739;28;20081;-48
2023/12/03 01:13:22;;;;;;;3.28;2.10;;;;;;;-0.57;79.98;99881.53;5006089;28;20057;-47
2023/12/03 01:15:49;;;;;;;7.63;3.38;;;;;;;-0.60;81.13;99876.34;5025651;28;20136;-50
2023/12/03 01:18:16;;;;;;;10.15;3.13;;;;;;;-0.55;80.37;99871.41;5026435;28;20061;-40
2023/12/03 01:20:43;;;;;;;5.53;2.75;;;;;;;-0.53;80.60;99868.13;5010246;28;20093;-49
2023/12/03 01:23:09;;;;;;;4.75;2.53;;;;;;;-0.52;80.66;99864.78;5010082;28;20045;-48
2023/12/03 01:25:36;;;;;;;7.18;3.47;;;;;;;-0.48;80.43;99862.38;5009709;28;20049;-44
2023/12/03 01:28:03;;;;;;;8.63;3.05;;;;;;;-0.47;80.16;99852.22;5001800;28;20042;-42
2023/12/03 01:30:30;;;;;;;11.18;4.05;;;;;;;-0.44;80.74;99861.69;5010891;28;20045;-47
2023/12/03 01:32:56;;;;;;;3.85;2.22;;;;;;;-0.44;81.28;99859.16;5009707;28;20406;-53
2023/12/03 01:35:23;;;;;;;10.75;3.50;;;;;;;-0.40;81.48;99854.22;5005438;28;20050;-44
2023/12/03 01:37:51;;;;;;;6.82;3.20;;;;;;;-0.38;81.68;99856.81;5005251;28;20049;-40
2023/12/03 01:40:18;;;;;;;6.07;2.65;;;;;;;-0.37;81.78;99862.78;5002909;28;20045;-48
2023/12/03 01:42:45;;;;;;;10.20;3.33;;;;;;;-0.35;82.27;99856.94;5008884;28;20041;-49
2023/12/03 01:45:12;;;;;;;10.73;3.97;;;;;;;-0.31;81.99;99858.78;5007794;28;20125;-47
2023/12/03 01:47:38;;;;;;;7.15;3.15;;;;;;;-0.27;81.47;99855.56;5010330;28;20095;-54
2023/12/03 01:50:07;;;;;;;6.43;3.15;;;;;;;-0.22;81.40;99853.19;5027626;28;20042;-52
2023/12/03 01:52:35;;;;;;;6.05;3.65;;;;;;;-0.18;81.19;99851.63;5014737;28;20049;-51
2023/12/03 01:55:03;;;;;;;6.63;2.78;;;;;;;-0.18;81.44;99856.72;5005722;28;20058;-44
2023/12/03 01:57:30;;;;;;;4.47;2.20;;;;;;;-0.16;81.92;99839.81;5009459;28;20049;-52
2023/12/03 01:59:57;;;;;;;7.57;3.08;;;;;;;-0.16;81.81;99842.38;5009767;28;20072;-50
2023/12/03 02:02:26;;;;;;;9.80;3.83;;;;;;;-0.16;82.14;99837.28;5009562;28;20060;-46
2023/12/03 02:04:53;;;;;;;6.90;3.38;;;;;;;-0.10;82.40;99840.03;5026292;28;20479;-45
2023/12/03 02:07:20;;;;;;;4.68;2.38;;;;;;;-0.08;81.95;99838.44;5017088;28;20050;-45
2023/12/03 02:09:46;;;;;;;7.57;3.15;;;;;;;-0.07;82.43;99836.75;5002667;28;20069;-44
2023/12/03 02:12:14;;;;;;;14.15;3.85;;;;;;;-0.05;82.61;99841.09;5015533;28;20058;-45
2023/12/03 02:14:40;;;;;;;10.27;4.25;;;;;;;0.01;83.45;99830.28;5007970;28;20092;-48
2023/12/03 02:17:07;;;;;;;7.43;3.25;;;;;;;0.03;82.77;99827.78;5027273;28;20409;-44
2023/12/03 02:19:34;;;;;;;6.43;2.90;;;;;;;0.06;83.39;99827.88;5015374;28;20044;-43
2023/12/03 02:22:00;;;;;;;6.38;2.67;;;;;;;0.10;83.02;99832.28;5008709;28;20057;-47
2023/12/03 02:24:27;;;;;;;4.00;2.38;;;;;;;0.12;84.07;99828.09;5008375;28;20042;-50
2023/12/03 02:26:54;;;;;;;4.00;1.92;;;;;;;0.16;84.11;99819.75;5008491;28;20596;-45
2023/12/03 02:29:20;;;;;;;3.90;1.58;;;;;;;0.17;83.78;99821.47;5008858;28;20041;-47
2023/12/03 02:31:47;;;;;;;6.07;2.58;;;;;;;0.20;84.01;99815.66;5007783;28;20045;-50
2023/12/03 02:34:14;;;;;;;4.80;2.53;;;;;;;0.22;83.91;99820.00;5003536;28;20297;-48
2023/12/03 02:36:44;;;;;;;6.85;3.10;;;;;;;0.23;83.91;99815.75;5008641;28;20050;-42
2023/12/03 02:39:11;;;;;;;7.20;2.15;;;;;;;0.27;83.46;99811.63;5009661;28;20050;-46
2023/12/03 02:41:37;;;;;;;6.13;1.83;;;;;;;0.27;83.21;99816.75;5003707;28;20565;-44
2023/12/03 02:44:04;;;;;;;8.35;3.63;;;;;;;0.23;84.62;99821.72;5009048;28;20050;-48
2023/12/03 02:46:31;;;;;;;9.40;3.85;;;;;;;0.23;84.22;99811.53;5021670;28;20111;-48
2023/12/03 02:48:57;;;;;;;3.85;2.28;;;;;;;0.29;83.66;99804.91;5016864;28;20057;-43
2023/12/03 02:51:24;;;;;;;10.77;3.45;;;;;;;0.29;84.34;99810.00;5008389;28;20105;-43
2023/12/03 02:53:51;;;;;;;6.43;2.85;;;;;;;0.30;83.58;99807.50;5008189;28;20067;-51
2023/12/03 02:56:18;;;;;;;5.43;2.03;;;;;;;0.34;83.27;99803.41;5008504;28;20065;-43
2023/12/03 02:58:45;;;;;;;4.30;1.95;;;;;;;0.34;83.65;99804.25;5004882;28;20053;-47
2023/12/03 03:01:11;;;;;;;5.80;2.70;;;;;;;0.36;84.52;99796.66;5018374;28;20050;-48
2023/12/03 03:03:38;;;;;;;8.68;3.85;;;;;;;0.37;83.92;99783.97;5020470;28;20759;-48
2023/12/03 03:06:05;;;;;;;9.07;3.17;;;;;;;0.41;83.26;99789.19;5005541;28;20064;-44
2023/12/03 03:08:32;;;;;;;12.38;4.28;;;;;;;0.42;83.33;99791.78;5008501;28;20050;-44
2023/12/03 03:10:59;;;;;;;4.07;2.28;;;;;;;0.42;83.66;99790.91;5002413;28;20049;-45
2023/12/03 03:13:25;;;;;;;7.85;3.85;;;;;;;0.46;83.29;99791.09;5014749;28;20083;-43
2023/12/03 03:15:52;;;;;;;6.10;2.63;;;;;;;0.46;83.79;99788.53;5009181;28;20054;-46
2023/12/03 03:18:19;;;;;;;7.32;3.25;;;;;;;0.49;83.63;99788.63;5006483;28;20050;-44
2023/12/03 03:20:46;;;;;;;11.75;4.57;;;;;;;0.52;83.72;99787.88;5008992;28;20124;-42
2023/12/03 03:23:13;;;;;;;8.13;3.47;;;;;;;0.56;83.87;99793.94;5008123;28;20071;-48
2023/12/03 03:25:39;;;;;;;7.90;3.40;;;;;;;0.56;83.96;99788.84;5008151;28;20041;-47
2023/12/03 03:28:06;;;;;;;10.30;3.42;;;;;;;0.58;82.72;99784.66;5014094;28;20053;-43
2023/12/03 03:30:33;;;;;;;6.35;2.30;;;;;;;0.59;82.99;99779.63;5006958;28;20053;-44
2023/12/03 03:32:59;;;;;;;8.85;3.88;;;;;;;0.57;82.99;99775.28;5007861;28;20057;-46
2023/12/03 03:35:26;;;;;;;10.02;3.47;;;;;;;0.59;82.68;99774.53;5008741;28;20041;-49
2023/12/03 03:37:53;;;;;;;3.55;2.60;;;;;;;0.56;83.46;99778.63;4997013;28;20415;-45
2023/12/03 03:40:19;;;;;;;5.40;2.25;;;;;;;0.56;84.19;99776.09;5007835;28;20060;-45
2023/12/03 03:42:46;;;;;;;7.25;3.30;;;;;;;0.56;83.61;99768.44;5005355;28;20049;-45
2023/12/03 03:45:13;;;;;;;13.23;4.65;;;;;;;0.59;83.83;99764.31;5006579;28;20041;-41
2023/12/03 03:47:39;;;;;;;7.95;2.60;;;;;;;0.62;83.68;99768.66;5003731;28;20104;-49
2023/12/03 03:50:06;;;;;;;8.02;3.83;;;;;;;0.63;82.42;99758.50;5007372;28;20046;-46
2023/12/03 03:52:33;;;;;;;11.30;4.13;;;;;;;0.64;82.59;99756.81;5007919;28;20119;-41
2023/12/03 03:55:00;;;;;;;10.63;4.20;;;;;;;0.66;83.01;99755.19;5008037;28;20053;-46
2023/12/03 03:57:27;;;;;;;9.57;4.47;;;;;;;0.66;82.82;99755.19;5007903;28;20060;-47
2023/12/03 03:59:53;;;;;;;13.93;4.15;;;;;;;0.69;82.69;99752.75;5008838;28;20053;-45
2023/12/03 04:02:20;;;;;;;12.18;4.55;;;;;;;0.71;83.08;99743.44;5004332;28;20135;-46
2023/12/03 04:04:47;;;;;;;13.32;5.18;;;;;;;0.74;82.45;99742.69;5008389;28;20068;-48
2023/12/03 04:07:14;;;;;;;11.50;4.63;;;;;;;0.72;83.28;99735.00;4987526;28;20045;-46
2023/12/03 04:09:40;;;;;;;16.42;4.40;;;;;;;0.74;82.38;99728.25;5014393;28;20084;-50
2023/12/03 04:12:07;;;;;;;11.05;4.30;;;;;;;0.74;83.23;99727.38;5025607;28;20045;-44
2023/12/03 04:14:34;;;;;;;12.13;4.80;;;;;;;0.72;83.12;99724.81;5007002;28;20053;-44
2023/12/03 04:17:01;;;;;;;4.68;1.50;;;;;;;0.72;82.41;99718.84;5005610;28;20049;-43
2023/12/03 04:19:28;;;;;;;9.70;4.78;;;;;;;0.74;82.60;99725.72;5011393;28;20664;-44
2023/12/03 04:21:54;;;;;;;10.20;4.70;;;;;;;0.77;82.56;99728.38;5010645;28;20104;-43
2023/12/03 04:24:21;;;;;;;6.55;2.95;;;;;;;0.79;81.97;99714.78;5006776;28;20046;-48
2023/12/03 04:26:48;;;;;;;7.40;2.92;;;;;;;0.78;82.62;99719.03;5011792;28;20064;-43
2023/12/03 04:29:14;;;;;;;6.25;2.95;;;;;;;0.80;82.96;99722.50;5010721;28;20053;-40
2023/12/03 04:31:41;;;;;;;9.65;3.42;;;;;;;0.76;83.90;99719.00;5010397;28;20722;-47
2023/12/03 04:34:08;;;;;;;9.82;3.50;;;;;;;0.82;83.26;99720.00;5011524;28;20049;-48
2023/12/03 04:36:35;;;;;;;8.65;3.22;;;;;;;0.85;83.11;99720.09;5010480;28;20133;-44
2023/12/03 04:39:04;;;;;;;12.52;3.92;;;;;;;0.88;83.40;99718.50;5011359;28;20128;-43
2023/12/03 04:41:35;;;;;;;5.70;2.42;;;;;;;0.91;83.32;99720.28;5008365;28;20052;-50
2023/12/03 04:44:02;;;;;;;10.15;4.03;;;;;;;0.94;82.97;99712.72;5010991;28;20061;-48
2023/12/03 04:46:30;;;;;;;11.60;4.57;;;;;;;0.98;83.10;99714.53;5006608;28;20534;-48
2023/12/03 04:48:56;;;;;;;11.70;4.15;;;;;;;1.02;81.73;99711.25;5003289;28;20049;-40
2023/12/03 04:51:23;;;;;;;11.10;3.92;;;;;;;1.05;83.20;99712.19;5008985;28;20499;-45
2023/12/03 04:53:50;;;;;;;9.25;3.90;;;;;;;1.06;82.15;99713.91;5011514;28;20093;-46
2023/12/03 04:56:17;;;;;;;10.20;3.92;;;;;;;1.09;82.46;99714.03;5010775;28;20565;-53
2023/12/03 04:58:44;;;;;;;10.18;3.88;;;;;;;1.10;81.94;99710.63;5010838;28;20128;-47
2023/12/03 05:01:12;;;;;;;9.88;3.42;;;;;;;1.13;82.99;99710.75;5011753;28;20045;-47
2023/12/03 05:03:43;;;;;;;7.22;2.53;;;;;;;1.14;82.78;99697.16;5011134;28;20100;-46
2023/12/03 05:06:10;;;;;;;12.27;3.83;;;;;;;1.13;81.53;99701.41;5010832;28;20140;-44
2023/12/03 05:08:37;;;;;;;9.30;3.30;;;;;;;1.16;81.96;99700.63;5007313;28;20140;-47
2023/12/03 05:11:05;;;;;;;9.05;3.40;;;;;;;1.16;81.32;99695.53;5025987;28;20041;-48
2023/12/03 05:13:32;;;;;;;11.02;3.47;;;;;;;1.17;81.54;99698.94;5014819;28;20053;-43
2023/12/03 05:16:02;;;;;;;5.88;1.95;;;;;;;1.15;82.71;99699.75;5010279;28;20053;-46
2023/12/03 05:18:28;;;;;;;12.05;4.55;;;;;;;1.17;81.77;99697.25;5014008;28;20135;-47
2023/12/03 05:20:57;;;;;;;9.73;3.78;;;;;;;1.18;81.93;99693.88;5013230;28;20056;-50
2023/12/03 05:23:24;;;;;;;12.50;4.47;;;;;;;1.21;81.37;99693.97;5010914;28;20132;-47
2023/12/03 05:25:52;;;;;;;9.43;4.03;;;;;;;1.24;81.97;99688.97;5024957;28;20476;-45
2023/12/03 05:28:19;;;;;;;12.65;4.93;;;;;;;1.25;82.53;99685.59;5018560;28;20050;-47
2023/12/03 05:30:45;;;;;;;11.48;3.92;;;;;;;1.27;82.74;99678.84;5007009;28;20088;-52
2023/12/03 05:33:13;;;;;;;10.52;4.28;;;;;;;1.32;81.85;99685.78;5010823;28;20144;-53
2023/12/03 05:35:40;;;;;;;9.38;3.65;;;;;;;1.32;81.31;99681.53;5007637;28;20095;-49
2023/12/03 05:38:07;;;;;;;10.15;3.10;;;;;;;1.32;81.66;99675.56;5006495;28;20053;-50
2023/12/03 05:40:33;;;;;;;12.68;4.00;;;;;;;1.32;82.35;99681.53;5004510;28;20507;-46
2023/12/03 05:43:00;;;;;;;13.05;5.07;;;;;;;1.34;81.11;99676.47;5008890;28;20492;-45
2023/12/03 05:45:28;;;;;;;11.73;3.95;;;;;;;1.33;81.68;99683.28;5005725;28;20480;-51
2023/12/03 05:47:54;;;;;;;13.27;4.97;;;;;;;1.33;82.31;99673.06;5010160;28;20056;-47
2023/12/03 05:50:21;;;;;;;13.98;4.75;;;;;;;1.32;81.61;99676.41;5029909;28;20049;-48
2023/12/03 05:52:48;;;;;;;8.82;3.72;;;;;;;1.30;82.13;99667.88;5013663;28;20073;-46
2023/12/03 05:55:16;;;;;;;16.38;5.15;;;;;;;1.31;80.90;99663.63;5010016;28;20050;-41
2023/12/03 05:57:43;;;;;;;10.30;4.07;;;;;;;1.31;82.09;99666.19;5010234;28;20045;-47
2023/12/03 06:00:10;;;;;;;14.63;4.43;;;;;;;1.30;81.57;99664.44;4999356;28;20054;-42
2023/12/03 06:02:38;;;;;;;14.70;4.90;;;;;;;1.30;81.53;99667.88;5009762;28;20128;-47
2023/12/03 06:05:05;;;;;;;20.38;5.75;;;;;;;1.32;81.52;99665.34;5009633;28;20531;-49
2023/12/03 06:07:32;;;;;;;12.85;4.57;;;;;;;1.34;81.01;99668.81;5007125;28;20614;-44
2023/12/03 06:09:58;;;;;;;12.18;4.85;;;;;;;1.35;81.33;99668.00;5007594;28;20136;-44
2023/12/03 06:12:25;;;;;;;12.73;5.07;;;;;;;1.36;81.89;99668.06;5013367;28;20160;-46
2023/12/03 06:14:52;;;;;;;13.45;4.93;;;;;;;1.37;81.89;99663.78;5029455;28;20605;-50
2023/12/03 06:17:19;;;;;;;14.77;5.32;;;;;;;1.37;81.66;99663.78;5009064;28;20041;-44
2023/12/03 06:19:45;;;;;;;14.55;5.28;;;;;;;1.39;81.12;99667.28;5017231;28;20041;-49
2023/12/03 06:22:12;;;;;;;12.77;5.28;;;;;;;1.43;80.93;99668.22;5009157;28;20049;-44
2023/12/03 06:24:39;;;;;;;11.98;4.25;;;;;;;1.44;81.75;99665.69;5007918;28;20100;-46
2023/12/03 06:27:06;;;;;;;16.88;5.28;;;;;;;1.45;81.95;99659.78;5006902;28;20487;-46
2023/12/03 06:29:32;;;;;;;13.18;4.88;;;;;;;1.46;80.96;99664.06;5008938;28;20045;-51
2023/12/03 06:31:59;;;;;;;14.70;5.35;;;;;;;1.45;81.65;99657.22;5007833;28;20052;-50
2023/12/03 06:34:26;;;;;;;12.05;5.05;;;;;;;1.47;81.15;99658.13;5001534;28;20053;-48
2023/12/03 06:36:53;;;;;;;15.45;5.20;;;;;;;1.48;80.68;99649.66;5013834;28;20505;-46
2023/12/03 06:39:20;;;;;;;13.68;4.15;;;;;;;1.49;80.88;99648.81;5008439;28;20056;-44
2023/12/03 06:41:46;;;;;;;12.43;4.82;;;;;;;1.48;82.07;99647.09;5009608;28;20133;-55
2023/12/03 06:44:13;;;;;;;13.38;5.18;;;;;;;1.48;80.72;99647.09;5008820;28;20049;-49
2023/12/03 06:46:40;;;;;;;14.43;5.00;;;;;;;1.48;81.40;99652.19;5008861;28;20067;-44
2023/12/03 06:49:07;;;;;;;18.95;5.05;;;;;;;1.50;80.57;99649.69;5008578;28;20530;-42
2023/12/03 06:51:34;;;;;;;11.73;4.75;;;;;;;1.49;82.14;99646.25;5008134;28;20046;-47
2023/12/03 06:54:02;;;;;;;13.85;4.93;;;;;;;1.48;81.03;99642.00;5014167;28;20049;-46
2023/12/03 06:56:29;;;;;;;15.38;5.32;;;;;;;1.50;82.00;99639.47;5009236;28;20077;-50
2023/12/03 06:58:55;;;;;;;14.82;5.35;;;;;;;1.49;81.55;99637.75;5008645;28;20049;-45
2023/12/03 07:01:22;;;;;;;18.63;5.20;;;;;;;1.50;80.87;99640.38;5004841;28;20050;-48
2023/12/03 07:03:49;;;;;;;9.48;3.92;;;;;;;1.52;81.59;99637.84;5006794;28;20046;-46
2023/12/03 07:06:16;;;;;;;18.55;5.85;;;;;;;1.53;81.12;99644.69;5008938;28;20041;-47
2023/12/03 07:08:44;;;;;;;15.43;5.32;;;;;;;1.54;81.35;99642.19;5007482;28;20046;-47
2023/12/03 07:11:13;;;;;;;19.25;5.60;;;;;;;1.58;81.29;99642.25;5005258;28;20148;-47
2023/12/03 07:13:40;;;;;;;14.93;4.72;;;;;;;1.57;81.69;99637.97;5003516;28;20132;-47
2023/12/03 07:16:09;;;;;;;14.13;4.78;;;;;;;1.60;80.71;99636.38;5008245;28;20053;-48
2023/12/03 07:18:40;;;;;;;11.32;5.18;;;;;;;1.60;80.93;99636.38;5014027;28;20521;-44
2023/12/03 07:21:07;;;;;;;17.88;5.75;;;;;;;1.62;81.73;99638.97;5012175;28;20050;-46
2023/12/03 07:23:34;;;;;;;14.18;5.80;;;;;;;1.62;82.15;99649.19;5005867;28;20041;-41
2023/12/03 07:26:00;;;;;;;16.13;4.72;;;;;;;1.63;81.63;99645.78;5003562;28;20519;-45
2023/12/03 07:28:27;;;;;;;14.63;4.57;;;;;;;1.64;80.77;99642.41;5008030;28;20108;-53
2023/12/03 07:30:54;;;;;;;19.23;6.35;;;;;;;1.64;80.79;99647.53;4999528;28;20463;-48
2023/12/03 07:33:20;;;;;;;13.65;5.38;;;;;;;1.64;81.43;99645.84;5008010;28;20057;-45
2023/12/03 07:35:47;;;;;;;14.65;5.22;;;;;;;1.65;80.31;99644.13;5009091;28;20069;-47
2023/12/03 07:38:14;;;;;;;17.25;5.95;;;;;;;1.63;81.31;99636.47;5007576;28;20124;-44
2023/12/03 07:40:41;;;;;;;11.45;4.68;;;;;;;1.62;81.08;99632.16;5003485;28;20112;-51
2023/12/03 07:43:08;;;;;;;16.83;5.47;;;;;;;1.64;81.78;99643.28;5007167;28;20053;-51
2023/12/03 07:45:35;;;;;;;13.50;4.45;;;;;;;1.64;81.98;99639.84;5011169;28;20052;-50
2023/12/03 07:48:02;;;;;;;16.38;4.75;;;;;;;1.64;81.67;99637.31;5010359;28;20054;-44
2023/12/03 07:50:28;;;;;;;15.75;5.10;;;;;;;1.64;81.36;99634.75;5011017;28;20077;-46
2023/12/03 07:52:55;;;;;;;10.93;3.72;;;;;;;1.64;81.07;99642.41;5011951;28;20392;-47
2023/12/03 07:55:22;;;;;;;11.85;4.53;;;;;;;1.64;80.74;99644.97;5010697;28;20049;-46
2023/12/03 07:57:49;;;;;;;16.00;4.35;;;;;;;1.62;81.27;99649.19;5012151;28;20123;-46
2023/12/03 08:00:16;;;;;;;15.88;5.25;;;;;;;1.65;80.76;99639.03;5001789;28;20054;-51
2023/12/03 08:02:43;;;;;;;9.32;3.10;;;;;;;1.64;81.04;99637.31;5009248;28;20172;-47
2023/12/03 08:05:10;;;;;;;16.27;3.95;;;;;;;1.65;80.99;99645.00;5029969;28;20048;-49
2023/12/03 08:07:37;;;;;;;10.15;4.20;;;;;;;1.67;81.13;99637.41;5013958;28;20042;-51
2023/12/03 08:10:05;;;;;;;17.20;5.53;;;;;;;1.66;81.11;99640.78;5011649;28;20052;-45
2023/12/03 08:12:32;;;;;;;12.05;4.20;;;;;;;1.66;81.75;99636.53;5011402;28;20045;-45
2023/12/03 08:15:00;;;;;;;11.25;4.50;;;;;;;1.67;81.59;99637.41;5010994;28;20061;-52
2023/12/03 08:17:26;;;;;;;11.50;4.63;;;;;;;1.66;82.27;99641.63;5011547;28;20057;-52
2023/12/03 08:19:53;;;;;;;14.45;5.20;;;;;;;1.66;81.44;99631.41;5013092;28;20049;-49
2023/12/03 08:22:20;;;;;;;17.40;5.38;;;;;;;1.67;83.03;99633.16;5011796;28;20049;-44
2023/12/03 08:24:46;;;;;;;9.80;4.32;;;;;;;1.69;82.79;99640.00;5005218;28;20050;-47
2023/12/03 08:27:13;;;;;;;9.20;3.20;;;;;;;1.70;82.02;99640.03;5011375;28;20062;-50
2023/12/03 08:29:40;;;;;;;13.10;4.00;;;;;;;1.72;81.58;99640.94;5010677;28;20119;-45
2023/12/03 08:32:06;;;;;;;17.30;4.38;;;;;;;1.73;82.98;99642.69;5005893;28;20135;-43
2023/12/03 08:34:33;;;;;;;15.85;5.25;;;;;;;1.75;81.86;99637.59;5011200;28;20549;-45
2023/12/03 08:37:00;;;;;;;19.15;4.95;;;;;;;1.77;81.99;99643.59;5013885;28;20476;-49
2023/12/03 08:39:27;;;;;;;14.77;4.40;;;;;;;1.78;82.12;99646.22;5018466;28;20046;-48
2023/12/03 08:41:53;;;;;;;10.13;3.55;;;;;;;1.80;82.05;99643.69;5011432;28;20046;-45
2023/12/03 08:44:20;;;;;;;16.63;4.63;;;;;;;1.83;81.37;99642.91;5011413;28;20503;-50
2023/12/03 08:46:47;;;;;;;17.33;4.60;;;;;;;1.84;81.63;99636.97;5030768;28;20053;-44
2023/12/03 08:49:13;;;;;;;15.32;5.75;;;;;;;1.86;81.72;99635.34;5020181;28;20046;-50
2023/12/03 08:51:40;;;;;;;12.00;4.45;;;;;;;1.88;82.52;99641.31;5010577;28;20048;-44
2023/12/03 08:54:07;;;;;;;23.63;5.22;;;;;;;1.89;82.83;99643.09;5009538;28;20141;-44
2023/12/03 08:56:33;;;;;;;12.02;4.38;;;;;;;1.92;81.96;99645.69;5010239;28;20096;-44
2023/12/03 08:59:00;;;;;;;16.38;5.43;;;;;;;1.93;81.92;99650.00;5008212;28;20124;-43
2023/12/03 09:01:27;;;;;;;15.00;4.13;;;;;;;1.93;82.33;99639.78;5004994;28;20158;-46
2023/12/03 09:03:54;;;;;;;21.55;4.55;;;;;;;1.96;81.72;99639.84;5010251;28;20100;-46
2023/12/03 09:06:20;;;;;;;14.70;4.82;;;;;;;1.97;82.71;99635.59;5009522;28;20078;-48
2023/12/03 09:08:47;;;;;;;14.55;4.32;;;;;;;1.98;82.70;99627.97;5011083;28;20048;-52
2023/12/03 09:11:14;;;;;;;17.38;4.20;;;;;;;2.00;81.78;99625.47;5010224;28;20863;-47
2023/12/03 09:13:41;;;;;;;24.65;4.60;;;;;;;1.99;82.36;99622.03;5022426;28;20111;-49
2023/12/03 09:16:08;;;;;;;18.08;4.68;;;;;;;1.99;82.59;99616.94;5019767;28;20049;-47
2023/12/03 09:18:38;;;;;;;13.93;3.97;;;;;;;2.01;82.98;99622.06;5015681;28;20046;-49
2023/12/03 09:21:06;;;;;;;;;;;;;;;1.99;82.25;99619.47;5013201;28;20046;-50
2023/12/03 09:23:34;;;;;;;31.75;4.68;;;;;;;2.02;82.04;99624.69;5010515;28;20397;-49
2023/12/03 09:26:01;;;;;;;44.38;5.07;;;;;;;2.03;82.29;99626.41;5005961;28;20046;-47
2023/12/03 09:28:30;;;;;;;31.77;5.10;;;;;;;2.05;83.29;99626.44;5015175;28;20077;-48
2023/12/03 09:30:58;;;;;;;55.55;6.30;;;;;;;2.09;82.86;99629.94;5009468;28;20041;-47
2023/12/03 09:33:26;;;;;;;46.63;5.55;;;;;;;2.10;82.46;99634.22;5010328;28;20127;-44
2023/12/03 09:35:56;;;;;;;8.88;3.15;;;;;;;2.11;81.80;99624.03;5009275;28;21267;-45
2023/12/03 09:38:23;;;;;;;25.02;5.47;;;;;;;2.11;81.97;99624.03;5033801;28;20107;-46
2023/12/03 09:40:53;;;;;;;22.90;4.75;;;;;;;2.12;82.77;99625.78;5016762;28;20052;-53
2023/12/03 09:43:20;;;;;;;31.17;4.65;;;;;;;2.14;83.28;99623.25;5004122;28;20046;-48
2023/12/03 09:45:47;;;;;;;36.63;5.60;;;;;;;2.16;82.43;99621.63;5005046;28;20050;-46
2023/12/03 09:48:19;;;;;;;32.72;5.03;;;;;;;2.18;82.98;99625.94;5006205;28;20073;-52
2023/12/03 09:50:47;;;;;;;52.17;6.32;;;;;;;2.23;82.91;99631.13;5006831;28;20073;-47
2023/12/03 09:53:15;;;;;;;32.28;4.75;;;;;;;2.26;83.03;99636.31;5006176;28;20053;-45
2023/12/03 09:55:42;;;;;;;44.53;6.53;;;;;;;2.27;82.22;99632.94;5008628;28;20499;-51
2023/12/03 09:58:11;;;;;;;57.10;6.38;;;;;;;2.30;82.28;99640.69;5009567;28;20506;-44
2023/12/03 10:00:38;;;;;;;51.03;6.65;;;;;;;2.34;82.26;99640.75;5008950;28;20045;-51
2023/12/03 10:03:05;;;;;;;49.67;7.53;;;;;;;2.37;82.34;99638.28;5027558;28;20052;-48
2023/12/03 10:05:32;;;;;;;91.80;11.52;;;;;;;2.38;82.44;99643.44;5009751;28;20410;-43
2023/12/03 10:08:00;;;;;;;68.53;9.82;;;;;;;2.42;81.67;99639.25;5006126;28;20044;-51
2023/12/03 10:10:34;;;;;;;95.72;11.05;;;;;;;2.43;82.12;99635.84;5008697;28;20754;-49
2023/12/03 10:13:03;;;;;;;75.65;7.10;;;;;;;2.44;82.45;99637.59;5002342;28;20528;-47
2023/12/03 10:15:30;;;;;;;74.72;8.45;;;;;;;2.46;81.99;99637.66;5009282;28;20050;-43
2023/12/03 10:17:56;;;;;;;106.80;6.75;;;;;;;2.46;82.21;99629.97;5009066;28;20404;-49
2023/12/03 10:20:26;;;;;;;98.00;6.75;;;;;;;2.46;82.21;99625.72;5014997;28;20448;-46
2023/12/03 10:22:57;;;;;;;163.60;9.25;;;;;;;2.44;82.45;99622.28;5002903;28;20415;-45
2023/12/03 10:28:04;;;;;;;164.48;14.77;;;;;;;2.79;81.46;99624.75;5041157;28;20759;-46
2023/12/03 10:30:31;;;;;;;133.82;10.60;;;;;;;2.60;81.24;99617.50;5019720;28;20076;-44
2023/12/03 10:32:58;;;;;;;110.50;8.65;;;;;;;2.57;81.49;99619.16;5029959;28;20163;-47
2023/12/03 10:35:31;;;;;;;120.75;9.43;;;;;;;2.56;81.64;99611.44;5012967;28;20081;-50
2023/12/03 10:37:58;;;;;;;96.45;7.30;;;;;;;2.56;82.59;99612.31;4999084;28;20516;-43
2023/12/03 10:40:25;;;;;;;120.30;8.85;;;;;;;2.59;82.56;99615.75;5005496;28;20050;-45
2023/12/03 10:42:52;;;;;;;73.70;7.32;;;;;;;2.60;82.34;99612.41;5002593;28;20053;-43
2023/12/03 10:45:19;;;;;;;142.77;10.75;;;;;;;2.61;82.26;99609.00;5008446;28;20057;-45
2023/12/03 10:47:46;;;;;;;95.30;8.85;;;;;;;2.60;82.38;99605.56;5010859;28;20096;-49
2023/12/03 10:50:13;;;;;;;109.78;9.85;;;;;;;2.60;82.68;99605.56;5005275;28;20050;-48
2023/12/03 10:52:40;;;;;;;108.82;10.25;;;;;;;2.60;82.06;99602.16;5010017;28;20100;-49
2023/12/03 10:55:08;;;;;;;86.30;6.95;;;;;;;2.59;81.60;99602.97;5013748;28;20505;-54
2023/12/03 10:57:52;;;;;;;81.47;10.23;;;;;;;2.59;82.49;99600.41;5007904;28;20049;-53
2023/12/03 11:00:21;;;;;;;71.90;8.60;;;;;;;2.59;82.35;99606.41;5011673;28;20053;-51
2023/12/03 11:03:02;;;;;;;68.20;9.77;;;;;;;2.61;81.45;99614.13;5009669;28;20046;-46
2023/12/03 11:05:36;;;;;;;97.03;9.07;;;;;;;2.60;82.12;99597.91;5009439;28;20128;-44
2023/12/03 11:08:04;;;;;;;71.40;9.13;;;;;;;2.60;81.70;99602.16;4978589;28;20097;-47
2023/12/03 11:10:31;;;;;;;86.05;9.23;;;;;;;2.61;81.46;99593.66;4989507;28;20050;-53
2023/12/03 11:13:00;;;;;;;81.07;9.60;;;;;;;2.60;81.46;99602.16;4988783;28;20074;-40
2023/12/03 11:15:28;;;;;;;99.75;8.70;;;;;;;2.60;82.26;99597.06;4986804;28;20066;-44
2023/12/03 11:17:56;;;;;;;75.47;6.88;;;;;;;2.59;82.54;99590.19;4991645;28;20440;-44
2023/12/03 11:20:30;;;;;;;74.82;8.80;;;;;;;2.62;82.19;99590.28;4978533;28;20153;-52
2023/12/03 11:25:35;;;;;;;125.10;7.97;;;;;;;2.68;81.81;99585.31;5036953;27;20410;-45
2023/12/03 11:28:01;;;;;;;89.68;7.32;;;;;;;2.67;81.48;99581.88;5021708;28;20060;-43
2023/12/03 11:30:37;;;;;;;71.85;7.72;;;;;;;2.68;81.61;99580.19;5024899;28;20053;-44
2023/12/03 11:33:07;;;;;;;89.45;7.35;;;;;;;2.69;82.81;99576.78;5020841;28;20053;-54
2023/12/03 11:35:34;;;;;;;88.20;8.00;;;;;;;2.70;81.49;99573.41;5017747;28;20514;-50
2023/12/03 11:38:02;;;;;;;55.28;6.35;;;;;;;2.71;82.77;99564.91;5030852;28;20060;-49
2023/12/03 11:40:33;;;;;;;89.38;6.18;;;;;;;2.70;82.22;99564.03;5016542;28;20046;-43